Time;durP1;ratioP1;P1;durP2;ratioP2;P2;SDS_P1;SDS_P2;PMS_P1;PMS_P2;Temp;Humidity;BMP_temperature;BMP_pressure;BME280_temperature;BME280_humidity;BME280_pressure;Samples;Min_cycle;Max_cycle;Signal;HPM_P1;HPM_P2
2023/05/13 00:02:12;;;;;;;15.23;13.73;;;10.10;99.90;;;;;;5100477;28;20464;-66
2023/05/13 00:04:39;;;;;;;15.00;13.50;;;10.00;99.90;;;;;;5099940;28;20744;-66
2023/05/13 00:07:07;;;;;;;16.03;14.53;;;9.90;99.90;;;;;;5099872;28;20503;-66
2023/05/13 00:09:35;;;;;;;19.03;17.10;;;9.90;99.90;;;;;;5100102;28;20441;-66
2023/05/13 00:12:03;;;;;;;22.67;20.57;;;9.80;99.90;;;;;;5100317;28;20448;-66
2023/05/13 00:14:30;;;;;;;21.30;17.97;;;9.80;99.90;;;;;;5098797;28;20460;-66
2023/05/13 00:16:58;;;;;;;23.20;20.90;;;9.80;99.90;;;;;;5099704;28;20464;-66
2023/05/13 00:19:25;;;;;;;26.73;23.87;;;9.70;99.90;;;;;;5099340;28;20491;-66
2023/05/13 00:21:52;;;;;;;21.57;19.40;;;9.70;99.90;;;;;;5100018;28;20496;-66
2023/05/13 00:24:20;;;;;;;19.33;17.43;;;9.60;99.90;;;;;;5099359;28;20870;-66
2023/05/13 00:26:49;;;;;;;18.60;16.63;;;9.60;99.90;;;;;;5099505;28;20828;-66
2023/05/13 00:29:16;;;;;;;20.47;18.57;;;9.70;99.90;;;;;;5099364;28;20460;-66
2023/05/13 00:31:43;;;;;;;24.57;22.10;;;9.60;99.90;;;;;;5099087;28;20515;-66
2023/05/13 00:34:10;;;;;;;24.57;22.17;;;9.60;99.90;;;;;;5099454;28;20463;-66
2023/05/13 00:36:38;;;;;;;26.57;24.10;;;9.50;99.90;;;;;;5099196;28;20757;-66
2023/05/13 00:39:05;;;;;;;24.60;22.10;;;9.50;99.90;;;;;;5099278;28;20718;-66
2023/05/13 00:41:32;;;;;;;23.93;21.63;;;9.50;99.90;;;;;;5099475;28;20475;-66
2023/05/13 00:44:00;;;;;;;24.60;22.20;;;9.60;99.90;;;;;;5099371;28;20435;-66
2023/05/13 00:46:31;;;;;;;26.53;23.83;;;9.50;99.90;;;;;;5098049;28;20460;-66
2023/05/13 00:48:59;;;;;;;25.07;22.47;;;9.50;99.90;;;;;;5099084;28;20890;-66
2023/05/13 00:51:27;;;;;;;26.73;24.27;;;9.50;99.90;;;;;;5099436;28;20969;-66
2023/05/13 00:53:55;;;;;;;23.20;20.40;;;9.50;99.90;;;;;;5099087;28;20760;-66
2023/05/13 00:56:22;;;;;;;23.70;21.60;;;9.60;99.90;;;;;;5099180;28;20786;-66
2023/05/13 00:58:49;;;;;;;20.93;18.93;;;9.60;99.90;;;;;;5098964;28;20464;-66
2023/05/13 01:01:26;;;;;;;21.30;19.40;;;9.60;99.90;;;;;;5098756;28;20471;-66
2023/05/13 01:04:03;;;;;;;23.87;21.40;;;9.60;99.90;;;;;;5098900;28;20460;-66
2023/05/13 01:06:40;;;;;;;24.43;19.97;;;9.60;99.90;;;;;;5098814;28;20464;-66
2023/05/13 01:09:17;;;;;;;20.13;18.27;;;9.70;99.90;;;;;;5098955;28;20467;-66
2023/05/13 01:11:45;;;;;;;17.50;15.80;;;9.70;99.90;;;;;;5098800;28;20460;-66
2023/05/13 01:14:16;;;;;;;16.87;14.97;;;9.70;99.90;;;;;;5098819;28;20866;-66
2023/05/13 01:16:49;;;;;;;30.93;19.20;;;9.70;99.90;;;;;;5098647;28;20435;-66
2023/05/13 01:19:32;;;;;;;22.77;20.63;;;9.70;99.90;;;;;;5098694;28;20442;-67
2023/05/13 01:22:01;;;;;;;24.57;21.90;;;9.70;99.90;;;;;;5098724;28;20487;-66
2023/05/13 01:24:28;;;;;;;25.30;22.60;;;9.70;99.90;;;;;;5097809;28;20463;-66
2023/05/13 01:26:55;;;;;;;30.23;23.50;;;9.60;99.90;;;;;;5098003;28;20461;-66
2023/05/13 01:29:23;;;;;;;23.10;20.80;;;9.60;99.90;;;;;;5098416;28;20438;-66
2023/05/13 01:31:52;;;;;;;23.00;20.70;;;9.60;99.90;;;;;;5097782;28;20451;-66
2023/05/13 01:34:20;;;;;;;22.23;19.27;;;9.60;99.90;;;;;;5097307;28;20435;-66
2023/05/13 01:36:48;;;;;;;21.73;19.80;;;9.60;99.90;;;;;;5098406;28;20461;-66
2023/05/13 01:39:19;;;;;;;22.53;20.40;;;9.50;99.90;;;;;;5090124;28;20465;-66
2023/05/13 01:41:46;;;;;;;21.20;19.00;;;9.40;99.90;;;;;;5098098;28;20790;-66
2023/05/13 01:44:14;;;;;;;21.47;19.27;;;9.30;99.90;;;;;;5098072;28;20929;-66
2023/05/13 01:46:44;;;;;;;20.50;18.53;;;9.30;99.90;;;;;;5098138;28;20542;-66
2023/05/13 01:49:11;;;;;;;17.47;15.93;;;9.30;99.90;;;;;;5098106;28;20439;-66
2023/05/13 01:51:39;;;;;;;18.60;16.60;;;9.30;99.90;;;;;;5097583;28;20456;-66
2023/05/13 01:54:06;;;;;;;18.80;16.53;;;9.20;99.90;;;;;;5098361;28;20554;-66
2023/05/13 01:56:34;;;;;;;18.60;16.90;;;9.30;99.90;;;;;;5097605;28;20470;-66
2023/05/13 01:59:02;;;;;;;19.70;17.90;;;9.30;99.90;;;;;;5098113;28;20439;-66
2023/05/13 02:01:29;;;;;;;21.60;19.23;;;9.20;99.90;;;;;;5098032;28;20494;-66
2023/05/13 02:03:58;;;;;;;22.80;20.40;;;9.20;99.90;;;;;;5098072;28;20460;-66
2023/05/13 02:06:26;;;;;;;26.17;23.77;;;9.20;99.90;;;;;;5097216;28;20439;-66
2023/05/13 02:08:53;;;;;;;24.23;22.00;;;9.20;99.90;;;;;;5097802;28;20460;-66
2023/05/13 02:11:21;;;;;;;24.40;21.80;;;9.20;99.90;;;;;;5098055;28;20433;-66
2023/05/13 02:13:49;;;;;;;25.30;22.90;;;9.20;99.90;;;;;;5097757;28;20442;-66
2023/05/13 02:16:18;;;;;;;24.80;22.20;;;9.10;99.90;;;;;;5097062;28;20443;-67
2023/05/13 02:18:45;;;;;;;25.43;23.13;;;9.20;99.90;;;;;;5097839;28;20551;-66
2023/05/13 02:21:12;;;;;;;25.87;22.57;;;9.20;99.90;;;;;;5097669;28;20953;-67
2023/05/13 02:23:39;;;;;;;27.90;25.10;;;9.20;99.90;;;;;;5097580;28;20464;-66
2023/05/13 02:26:06;;;;;;;29.50;26.40;;;9.20;99.90;;;;;;5097851;28;20479;-66
2023/05/13 02:28:33;;;;;;;29.13;26.13;;;9.20;99.90;;;;;;5097437;28;20468;-66
2023/05/13 02:31:02;;;;;;;26.17;23.77;;;9.20;99.90;;;;;;5097300;28;20912;-66
2023/05/13 02:33:29;;;;;;;26.40;24.07;;;9.20;99.90;;;;;;5097927;28;20455;-66
2023/05/13 02:35:56;;;;;;;25.80;23.20;;;9.10;99.90;;;;;;5097633;28;20445;-66
2023/05/13 02:38:23;;;;;;;25.90;23.60;;;9.10;99.90;;;;;;5096425;28;20687;-66
2023/05/13 02:40:51;;;;;;;25.13;22.27;;;9.10;99.90;;;;;;5097147;28;20484;-66
2023/05/13 02:43:18;;;;;;;24.67;22.07;;;9.10;99.90;;;;;;5097242;28;20467;-66
2023/05/13 02:45:46;;;;;;;25.67;23.47;;;9.00;99.90;;;;;;5097906;28;20849;-66
2023/05/13 02:48:15;;;;;;;23.03;20.73;;;9.10;99.90;;;;;;5097239;28;20460;-66
2023/05/13 02:50:42;;;;;;;23.27;21.00;;;9.00;99.90;;;;;;5096935;28;20463;-66
2023/05/13 02:53:09;;;;;;;23.50;21.30;;;9.00;99.90;;;;;;5097123;28;20476;-66
2023/05/13 02:55:36;;;;;;;21.73;19.67;;;8.90;99.90;;;;;;5097364;28;20435;-66
2023/05/13 02:58:03;;;;;;;22.87;20.83;;;8.90;99.90;;;;;;5097173;28;20464;-66
2023/05/13 03:00:31;;;;;;;22.60;20.40;;;8.90;99.90;;;;;;5096903;28;20518;-66
2023/05/13 03:02:58;;;;;;;22.80;20.63;;;8.90;99.90;;;;;;5096996;28;20895;-66
2023/05/13 03:05:26;;;;;;;23.20;20.70;;;8.90;99.90;;;;;;5097118;28;20460;-66
2023/05/13 03:07:54;;;;;;;22.27;19.97;;;8.90;99.90;;;;;;5097170;28;20435;-66
2023/05/13 03:10:21;;;;;;;20.83;18.77;;;8.90;99.90;;;;;;5096954;28;20538;-66
2023/05/13 03:12:48;;;;;;;22.03;19.67;;;8.80;99.90;;;;;;5096903;28;20438;-66
2023/05/13 03:15:16;;;;;;;23.00;18.70;;;8.80;99.90;;;;;;5096690;28;20530;-66
2023/05/13 03:17:43;;;;;;;19.60;17.70;;;8.80;99.90;;;;;;5096987;28;20907;-66
2023/05/13 03:20:11;;;;;;;19.17;17.40;;;8.70;99.90;;;;;;5097048;28;20457;-66
2023/05/13 03:22:40;;;;;;;19.10;17.27;;;8.70;99.90;;;;;;5096433;28;20466;-66
2023/05/13 03:25:08;;;;;;;17.90;16.20;;;8.70;99.90;;;;;;5096433;28;20500;-66
2023/05/13 03:27:35;;;;;;;18.30;16.57;;;8.60;99.90;;;;;;5096869;28;20746;-66
2023/05/13 03:30:02;;;;;;;18.60;16.80;;;8.60;99.90;;;;;;5097179;28;20467;-66
2023/05/13 03:32:30;;;;;;;20.57;18.50;;;8.50;99.90;;;;;;5096410;28;20484;-66
2023/05/13 03:34:59;;;;;;;20.03;17.80;;;8.50;99.90;;;;;;5096813;28;20560;-66
2023/05/13 03:37:26;;;;;;;19.37;17.60;;;8.50;99.90;;;;;;5096697;28;20881;-66
2023/05/13 03:39:55;;;;;;;18.93;17.23;;;8.50;99.90;;;;;;5096744;28;20464;-66
2023/05/13 03:42:23;;;;;;;19.10;16.30;;;8.50;99.90;;;;;;5096186;28;20492;-66
2023/05/13 03:44:50;;;;;;;21.63;18.17;;;8.50;99.90;;;;;;5096712;28;20873;-65
2023/05/13 03:47:17;;;;;;;19.77;17.40;;;8.50;99.90;;;;;;5096746;28;20460;-66
2023/05/13 03:49:46;;;;;;;20.63;18.53;;;8.40;99.90;;;;;;5099702;28;20468;-66
2023/05/13 03:52:14;;;;;;;21.73;19.67;;;8.40;99.90;;;;;;5099706;28;20462;-66
2023/05/13 03:54:41;;;;;;;20.20;18.37;;;8.40;99.90;;;;;;5100119;28;20883;-66
2023/05/13 03:57:09;;;;;;;22.13;19.90;;;8.40;99.90;;;;;;5099844;28;20467;-66
2023/05/13 03:59:36;;;;;;;20.17;18.27;;;8.40;99.90;;;;;;5099640;28;20466;-66
2023/05/13 04:02:05;;;;;;;19.93;18.00;;;8.40;99.90;;;;;;5100081;28;20771;-66
2023/05/13 04:04:32;;;;;;;18.53;16.87;;;8.50;99.90;;;;;;5099538;28;20541;-66
2023/05/13 04:06:59;;;;;;;19.77;18.03;;;8.40;99.90;;;;;;5099925;28;20465;-66
2023/05/13 04:09:26;;;;;;;22.50;19.30;;;8.30;99.90;;;;;;5099448;28;20705;-66
2023/05/13 04:11:53;;;;;;;19.10;17.40;;;8.30;99.90;;;;;;5099884;28;20913;-66
2023/05/13 04:14:22;;;;;;;20.00;18.07;;;8.40;99.90;;;;;;5087145;28;20473;-66
2023/05/13 04:16:49;;;;;;;19.57;17.97;;;8.40;99.90;;;;;;5078873;28;20457;-66
2023/05/13 04:19:16;;;;;;;20.57;18.30;;;8.40;99.90;;;;;;5079260;28;20465;-66
2023/05/13 04:21:43;;;;;;;19.70;17.73;;;8.40;99.90;;;;;;5079307;28;20776;-66
2023/05/13 04:24:10;;;;;;;22.10;19.87;;;8.50;99.90;;;;;;5079386;28;20439;-66
2023/05/13 04:26:38;;;;;;;20.23;18.43;;;8.50;99.90;;;;;;5078716;28;20716;-66
2023/05/13 04:29:05;;;;;;;20.47;18.57;;;8.50;99.90;;;;;;5078778;28;20464;-66
2023/05/13 04:31:34;;;;;;;25.83;23.30;;;8.50;99.90;;;;;;5089147;28;20878;-66
2023/05/13 04:34:01;;;;;;;25.77;23.37;;;8.60;99.90;;;;;;5098443;28;20827;-65
2023/05/13 04:36:28;;;;;;;25.40;23.00;;;8.60;99.90;;;;;;5083183;28;20473;-66
2023/05/13 04:38:55;;;;;;;27.00;24.30;;;8.60;99.90;;;;;;5079038;28;20894;-66
2023/05/13 04:41:23;;;;;;;37.80;26.50;;;8.60;99.90;;;;;;5078966;28;20969;-66
2023/05/13 04:43:50;;;;;;;28.03;25.23;;;8.60;99.90;;;;;;5079147;28;20436;-66
2023/05/13 04:46:24;;;;;;;26.93;24.47;;;8.70;99.90;;;;;;5078689;28;20700;-66
2023/05/13 04:48:53;;;;;;;25.93;23.60;;;8.80;99.90;;;;;;5078656;28;20464;-66
2023/05/13 04:51:20;;;;;;;25.13;22.77;;;8.80;99.90;;;;;;5078695;28;20457;-66
2023/05/13 04:53:47;;;;;;;26.13;23.63;;;8.90;99.90;;;;;;5079184;28;20461;-66
2023/05/13 04:56:15;;;;;;;28.53;25.83;;;8.90;99.90;;;;;;5078197;28;20725;-66
2023/05/13 04:58:42;;;;;;;32.07;29.17;;;9.00;99.90;;;;;;5078878;28;20910;-66
2023/05/13 05:01:09;;;;;;;37.50;33.70;;;9.10;99.90;;;;;;5077796;28;20443;-66
2023/05/13 05:03:36;;;;;;;41.20;36.90;;;9.10;99.90;;;;;;5078849;28;20461;-66
2023/05/13 05:06:05;;;;;;;37.10;33.30;;;9.20;99.90;;;;;;5078645;28;20759;-66
2023/05/13 05:08:32;;;;;;;32.63;29.40;;;9.20;99.90;;;;;;5078410;28;20461;-66
2023/05/13 05:11:00;;;;;;;30.67;27.80;;;9.30;99.90;;;;;;5078186;28;20442;-66
2023/05/13 05:13:27;;;;;;;31.23;28.37;;;9.40;99.90;;;;;;5078529;28;20440;-66
2023/05/13 05:15:55;;;;;;;30.23;27.10;;;9.40;99.90;;;;;;5077825;28;20796;-66
2023/05/13 05:18:22;;;;;;;26.20;23.90;;;9.50;99.90;;;;;;5078146;28;20523;-66
2023/05/13 05:20:49;;;;;;;26.90;24.30;;;9.60;99.90;;;;;;5077843;28;20468;-66
2023/05/13 05:23:17;;;;;;;24.83;22.50;;;9.80;99.90;;;;;;5077827;28;20478;-66
2023/05/13 05:25:46;;;;;;;24.07;21.73;;;9.90;99.90;;;;;;5077086;28;20849;-66
2023/05/13 05:28:13;;;;;;;24.13;21.73;;;10.00;99.90;;;;;;5077516;28;20436;-66
2023/05/13 05:30:40;;;;;;;24.10;21.80;;;10.00;99.90;;;;;;5077731;28;20467;-66
2023/05/13 05:33:08;;;;;;;23.30;20.93;;;10.10;99.90;;;;;;5078122;28;20760;-67
2023/05/13 05:35:37;;;;;;;22.33;20.37;;;10.20;99.90;;;;;;5082893;28;20530;-67
2023/05/13 05:38:04;;;;;;;25.23;21.57;;;10.40;99.90;;;;;;5098113;28;20517;-67
2023/05/13 05:40:33;;;;;;;23.77;21.43;;;10.50;99.90;;;;;;5097802;28;20434;-66
2023/05/13 05:43:00;;;;;;;23.77;21.47;;;10.70;99.90;;;;;;5097508;28;20776;-66
2023/05/13 05:45:27;;;;;;;22.37;20.30;;;10.90;99.90;;;;;;5097730;28;20460;-64
2023/05/13 05:47:56;;;;;;;23.50;21.40;;;11.10;99.90;;;;;;5098725;28;20467;-64
2023/05/13 05:50:23;;;;;;;20.90;19.00;;;11.30;99.90;;;;;;5098321;28;20517;-64
2023/05/13 05:52:50;;;;;;;22.57;20.33;;;11.50;99.90;;;;;;5098178;28;20456;-64
2023/05/13 05:55:17;;;;;;;21.50;19.50;;;11.70;99.90;;;;;;5097287;28;20467;-64
2023/05/13 05:57:46;;;;;;;19.77;17.87;;;11.90;99.90;;;;;;5097479;28;20463;-64
2023/05/13 06:00:14;;;;;;;19.63;17.67;;;12.10;99.90;;;;;;5096724;28;20461;-64
2023/05/13 06:02:42;;;;;;;19.10;17.40;;;12.30;99.90;;;;;;5097660;28;20586;-64
2023/05/13 06:05:10;;;;;;;21.93;17.50;;;12.60;99.90;;;;;;5096302;28;20457;-65
2023/05/13 06:07:37;;;;;;;18.37;16.67;;;12.80;99.90;;;;;;5097533;28;20869;-64
2023/05/13 06:10:04;;;;;;;18.77;16.90;;;13.00;99.90;;;;;;5097920;28;20460;-65
2023/05/13 06:12:31;;;;;;;16.87;15.17;;;13.20;1.00;;;;;;5096975;28;20491;-65
2023/05/13 06:15:00;;;;;;;16.83;15.33;;;13.10;99.90;;;;;;5096789;28;20969;-65
2023/05/13 06:17:27;;;;;;;17.20;15.50;;;13.10;1.00;;;;;;5095637;28;20460;-65
2023/05/13 06:19:55;;;;;;;16.87;15.17;;;12.90;1.00;;;;;;5096341;28;20464;-65
2023/05/13 06:22:22;;;;;;;16.23;14.77;;;12.80;99.90;;;;;;5095288;28;20492;-65
2023/05/13 06:24:49;;;;;;;15.80;14.40;;;12.70;99.90;;;;;;5093463;28;20881;-65
2023/05/13 06:27:16;;;;;;;17.10;15.60;;;12.60;99.90;;;;;;5094547;28;20456;-65
2023/05/13 06:29:43;;;;;;;16.07;14.37;;;12.50;99.90;;;;;;5096655;28;20464;-65
2023/05/13 06:32:12;;;;;;;15.70;14.20;;;12.50;1.00;;;;;;5096890;28;20512;-65
2023/05/13 06:34:41;;;;;;;16.07;14.50;;;12.60;99.90;;;;;;5092265;28;20461;-65
2023/05/13 06:37:08;;;;;;;16.10;14.60;;;12.60;99.90;;;;;;5076854;28;20472;-65
2023/05/13 06:39:35;;;;;;;16.00;14.60;;;12.80;99.90;;;;;;5076095;28;20902;-65
2023/05/13 06:42:02;;;;;;;16.47;14.00;;;12.80;99.90;;;;;;5076036;28;20516;-65
2023/05/13 06:44:30;;;;;;;15.17;13.77;;;12.80;87.30;;;;;;5076535;28;20461;-65
2023/05/13 06:46:57;;;;;;;16.60;15.00;;;12.80;99.90;;;;;;5075732;28;20457;-65
2023/05/13 06:49:26;;;;;;;14.47;12.90;;;12.90;1.00;;;;;;5075785;28;20467;-65
2023/05/13 06:51:53;;;;;;;15.53;14.23;;;12.90;99.90;;;;;;5076807;28;20758;-65
2023/05/13 06:54:20;;;;;;;14.70;13.40;;;12.90;99.90;;;;;;5076955;28;20929;-65
2023/05/13 06:56:47;;;;;;;13.83;12.63;;;13.00;1.00;;;;;;5076820;28;20461;-65
2023/05/13 06:59:15;;;;;;;15.80;14.20;;;13.00;99.90;;;;;;5068870;28;20887;-66
2023/05/13 07:01:42;;;;;;;15.37;13.93;;;13.10;99.90;;;;;;5076807;28;20469;-65
2023/05/13 07:04:09;;;;;;;15.53;13.60;;;13.40;99.90;;;;;;5076440;28;20457;-66
2023/05/13 07:06:38;;;;;;;14.17;12.77;;;13.60;99.90;;;;;;5076962;28;20465;-66
2023/05/13 07:09:05;;;;;;;14.27;12.07;;;14.00;99.90;;;;;;5076957;28;20466;-66
2023/05/13 07:11:32;;;;;;;10.13;9.30;;;14.30;99.70;;;;;;5077219;28;20541;-66
2023/05/13 07:13:59;;;;;;;11.70;10.70;;;14.50;1.00;;;;;;5076507;28;20461;-66
2023/05/13 07:16:26;;;;;;;11.33;10.33;;;14.80;1.00;;;;;;5076062;28;20874;-65
2023/05/13 07:18:54;;;;;;;12.10;9.60;;;15.30;1.00;;;;;;5076619;28;20468;-66
2023/05/13 07:21:21;;;;;;;10.97;9.97;;;15.90;1.00;;;;;;5076460;28;20874;-65
2023/05/13 07:23:49;;;;;;;15.40;9.60;;;16.50;1.00;;;;;;5078050;28;20550;-66
2023/05/13 07:26:16;;;;;;;9.87;8.93;;;16.90;1.00;;;;;;5078987;28;20885;-65
2023/05/13 07:28:44;;;;;;;10.17;9.07;;;17.00;1.00;;;;;;5080225;28;20435;-65
2023/05/13 07:31:11;;;;;;;10.10;9.20;;;16.80;1.00;;;;;;5086674;28;20495;-65
2023/05/13 07:33:38;;;;;;;11.70;9.20;;;17.20;1.00;;;;;;5100440;28;20456;-65
2023/05/13 07:36:06;;;;;;;8.13;7.43;;;17.70;1.00;;;;;;5100849;28;20708;-65
2023/05/13 07:38:33;;;;;;;10.57;8.67;;;18.30;1.00;;;;;;5100311;28;20457;-65
2023/05/13 07:41:02;;;;;;;9.60;8.70;;;18.80;99.90;;;;;;5099626;28;20874;-64
2023/05/13 07:43:29;;;;;;;8.83;7.93;;;19.20;99.90;;;;;;5097344;28;20490;-64
2023/05/13 07:45:58;;;;;;;7.40;6.70;;;19.70;1.00;;;;;;5074273;28;20750;-64
2023/05/13 07:48:30;;;;;;;8.80;8.00;;;19.80;99.90;;;;;;5078400;28;20502;-64
2023/05/13 07:50:58;;;;;;;7.80;7.03;;;20.00;99.90;;;;;;5078123;28;20457;-64
2023/05/13 07:53:25;;;;;;;7.23;6.53;;;19.90;99.90;;;;;;5078485;28;20709;-65
2023/05/13 07:55:52;;;;;;;8.83;7.93;;;20.20;99.90;;;;;;5078373;28;20466;-65
2023/05/13 07:58:21;;;;;;;7.20;6.50;;;20.50;99.90;;;;;;5078065;28;20461;-65
2023/05/13 08:00:49;;;;;;;8.57;7.87;;;21.10;99.90;;;;;;5077767;28;20468;-63
2023/05/13 08:03:16;;;;;;;7.03;6.43;;;21.30;99.90;;;;;;5076207;28;20964;-63
2023/05/13 08:05:43;;;;;;;7.83;7.03;;;21.30;99.90;;;;;;5076459;28;20465;-64
2023/05/13 08:08:10;;;;;;;9.13;6.90;;;21.20;99.90;;;;;;5076662;28;20461;-63
2023/05/13 08:10:37;;;;;;;6.83;6.13;;;21.50;99.90;;;;;;5076844;28;20515;-63
2023/05/13 08:13:05;;;;;;;7.37;6.57;;;21.50;99.90;;;;;;5076994;28;20751;-64
2023/05/13 08:15:33;;;;;;;7.27;6.67;;;21.50;99.90;;;;;;5076714;28;20461;-63
2023/05/13 08:18:00;;;;;;;7.10;6.40;;;21.30;99.90;;;;;;5077765;28;20468;-62
2023/05/13 08:20:28;;;;;;;6.53;6.00;;;20.70;99.90;;;;;;5077360;28;20746;-62
2023/05/13 08:22:57;;;;;;;6.67;5.70;;;20.50;99.90;;;;;;5075620;28;20824;-62
2023/05/13 08:25:24;;;;;;;8.97;8.10;;;20.60;99.90;;;;;;5075051;28;20435;-62
2023/05/13 08:27:51;;;;;;;9.13;6.40;;;20.80;99.90;;;;;;5075024;28;20473;-62
2023/05/13 08:30:18;;;;;;;8.23;6.80;;;20.50;99.90;;;;;;5076307;28;20473;-62
2023/05/13 08:32:47;;;;;;;7.90;7.10;;;20.20;99.90;;;;;;5076843;28;20432;-62
2023/05/13 08:35:14;;;;;;;11.43;8.07;;;20.10;99.90;;;;;;5075932;28;20457;-62
2023/05/13 08:37:41;;;;;;;8.57;7.80;;;20.00;99.90;;;;;;5077756;28;20460;-63
2023/05/13 08:40:11;;;;;;;7.20;6.60;;;20.10;99.90;;;;;;5076586;28;20774;-62
2023/05/13 08:42:39;;;;;;;9.37;8.07;;;20.30;99.90;;;;;;5072894;28;20492;-63
2023/05/13 08:45:09;;;;;;;8.63;7.80;;;20.20;99.90;;;;;;5075342;28;20464;-62
2023/05/13 08:47:45;;;;;;;8.53;7.73;;;20.40;99.90;;;;;;5072704;28;20460;-62
2023/05/13 08:50:14;;;;;;;8.50;7.80;;;20.80;99.90;;;;;;5076028;28;20760;-62
2023/05/13 08:52:43;;;;;;;8.17;7.37;;;21.10;99.90;;;;;;5075727;28;20449;-62
2023/05/13 08:55:10;;;;;;;8.43;7.67;;;21.50;99.90;;;;;;5076172;28;20529;-61
2023/05/13 08:57:38;;;;;;;11.77;8.70;;;21.70;99.90;;;;;;5077310;28;20456;-63
2023/05/13 09:00:06;;;;;;;7.40;6.70;;;22.10;99.90;;;;;;5074038;28;20776;-62
2023/05/13 09:02:33;;;;;;;9.07;8.27;;;22.50;99.90;;;;;;5075407;28;20552;-62
2023/05/13 09:05:05;;;;;;;10.07;8.97;;;22.60;99.90;;;;;;5075023;28;20461;-62
2023/05/13 09:07:34;;;;;;;9.47;8.47;;;22.40;99.90;;;;;;5075461;28;20454;-62
2023/05/13 09:10:01;;;;;;;7.87;7.17;;;22.00;99.90;;;;;;5076521;28;20461;-61
2023/05/13 09:12:48;;;;;;;9.60;8.80;;;22.70;99.90;;;;;;5074611;28;20460;-63
2023/05/13 09:15:17;;;;;;;10.90;9.20;;;22.90;99.90;;;;;;5063998;28;20866;-61
2023/05/13 09:17:45;;;;;;;9.53;8.73;;;23.00;99.90;;;;;;5060518;28;20540;-61
2023/05/13 09:20:13;;;;;;;9.30;8.50;;;23.10;99.90;;;;;;5069507;28;20455;-62
2023/05/13 09:22:46;;;;;;;9.40;8.50;;;23.20;99.90;;;;;;5056804;28;20494;-61
2023/05/13 09:25:13;;;;;;;8.67;7.97;;;23.30;99.90;;;;;;5056983;28;20484;-61
2023/05/13 09:27:42;;;;;;;9.00;8.10;;;23.40;99.90;;;;;;5060399;28;20458;-61
2023/05/13 09:30:11;;;;;;;8.13;7.33;;;23.50;99.90;;;;;;5057472;28;20458;-61
2023/05/13 09:32:39;;;;;;;8.80;8.10;;;23.90;99.90;;;;;;5083124;28;20485;-61
2023/05/13 09:35:10;;;;;;;8.80;7.07;;;24.30;99.90;;;;;;5087538;28;20469;-61
2023/05/13 09:37:37;;;;;;;8.57;7.77;;;24.50;99.90;;;;;;5088948;28;20486;-61
2023/05/13 09:40:11;;;;;;;8.70;8.03;;;24.10;99.90;;;;;;5075477;28;20881;-61
2023/05/13 09:42:41;;;;;;;8.23;7.37;;;24.00;99.90;;;;;;5085777;28;20461;-62
2023/05/13 09:45:10;;;;;;;8.20;7.50;;;24.10;99.90;;;;;;5075103;28;20969;-61
2023/05/13 09:47:38;;;;;;;8.80;7.43;;;24.30;99.90;;;;;;5075833;28;20461;-60
2023/05/13 09:50:06;;;;;;;7.63;7.03;;;23.90;99.90;;;;;;5075803;28;20865;-61
2023/05/13 09:52:35;;;;;;;6.90;6.30;;;23.90;99.90;;;;;;5075662;28;20465;-60
2023/05/13 09:55:04;;;;;;;7.67;6.73;;;24.10;99.90;;;;;;5076828;28;20461;-59
2023/05/13 09:57:33;;;;;;;7.80;7.00;;;24.40;99.90;;;;;;5077267;28;20504;-61
2023/05/13 10:00:01;;;;;;;9.40;6.90;;;24.30;99.90;;;;;;5076087;28;20484;-61
2023/05/13 10:02:29;;;;;;;8.20;7.50;;;24.50;99.90;;;;;;5075995;28;20465;-62
2023/05/13 10:04:57;;;;;;;9.13;8.33;;;24.70;99.90;;;;;;5092013;28;20523;-62
2023/05/13 10:07:24;;;;;;;8.00;7.23;;;24.60;99.90;;;;;;5095065;28;20464;-61
2023/05/13 10:09:54;;;;;;;10.30;7.80;;;24.50;99.90;;;;;;5095499;28;20460;-62
2023/05/13 10:12:22;;;;;;;7.57;6.87;;;24.50;99.90;;;;;;5095794;28;20464;-61
2023/05/13 10:14:52;;;;;;;7.27;6.57;;;25.00;99.90;;;;;;5096277;28;20916;-61
2023/05/13 10:17:22;;;;;;;7.30;6.43;;;24.70;99.90;;;;;;5096215;28;20521;-59
2023/05/13 10:19:51;;;;;;;6.47;5.90;;;25.00;99.90;;;;;;5096877;28;20439;-59
2023/05/13 10:22:27;;;;;;;7.90;6.87;;;25.10;99.90;;;;;;5096787;28;20503;-60
2023/05/13 10:24:56;;;;;;;7.87;6.40;;;25.10;99.90;;;;;;5095832;28;20490;-59
2023/05/13 10:27:28;;;;;;;7.43;6.70;;;24.70;99.90;;;;;;5097645;28;20471;-62
2023/05/13 10:29:58;;;;;;;7.63;6.93;;;25.00;99.90;;;;;;5097226;28;20467;-57
2023/05/13 10:32:27;;;;;;;7.90;6.70;;;25.30;99.90;;;;;;5097037;28;20921;-60
2023/05/13 10:34:59;;;;;;;6.67;6.03;;;25.60;99.90;;;;;;5097427;28;20460;-60
2023/05/13 10:37:59;;;;;;;9.43;6.40;;;25.50;99.90;;;;;;5097284;28;20940;-59
2023/05/13 10:40:47;;;;;;;6.43;5.77;;;25.20;99.90;;;;;;5095559;28;20500;-53
2023/05/13 10:43:18;;;;;;;7.90;6.80;;;24.30;99.90;;;;;;5093660;28;20492;-56
2023/05/13 10:45:48;;;;;;;6.07;5.67;;;23.90;99.90;;;;;;5097413;28;20881;-56
2023/05/13 10:48:17;;;;;;;6.50;5.33;;;24.40;99.90;;;;;;5096720;28;20466;-60
2023/05/13 10:50:55;;;;;;;8.40;6.33;;;25.20;99.90;;;;;;5097244;28;20475;-60
2023/05/13 10:53:24;;;;;;;7.60;7.00;;;25.80;99.90;;;;;;5097070;28;20456;-57
2023/05/13 10:55:56;;;;;;;6.50;5.90;;;25.50;99.90;;;;;;5097210;28;20456;-60
2023/05/13 10:58:29;;;;;;;7.50;6.90;;;25.90;99.90;;;;;;5097990;28;20522;-56
2023/05/13 11:03:54;;;;;;;5.50;5.10;;;26.20;99.90;;;;;;5114739;27;20592;-56
2023/05/13 11:06:23;;;;;;;6.63;6.13;;;26.70;99.90;;;;;;5115453;28;20550;-58
2023/05/13 11:08:51;;;;;;;5.73;5.23;;;26.00;99.90;;;;;;5114919;28;20455;-55
2023/05/13 11:11:23;;;;;;;6.97;6.20;;;25.80;99.90;;;;;;5113535;28;20430;-55
2023/05/13 11:13:50;;;;;;;6.70;6.10;;;25.70;99.90;;;;;;5113935;28;20483;-56
2023/05/13 11:16:18;;;;;;;8.53;7.87;;;26.10;99.90;;;;;;5111989;28;20555;-57
2023/05/13 11:18:46;;;;;;;6.60;5.60;;;25.90;99.90;;;;;;5112249;28;20998;-56
2023/05/13 11:21:14;;;;;;;6.47;5.97;;;26.50;99.90;;;;;;5111812;28;20472;-57
2023/05/13 11:23:53;;;;;;;7.23;6.63;;;27.20;99.90;;;;;;5121815;28;20519;-53
2023/05/13 11:26:20;;;;;;;7.13;6.43;;;26.10;99.90;;;;;;5131591;27;20462;-55
2023/05/13 11:28:59;;;;;;;6.83;6.27;;;26.10;99.90;;;;;;5114760;28;20459;-55
2023/05/13 11:31:28;;;;;;;6.80;6.20;;;26.30;99.90;;;;;;5114850;28;20470;-53
2023/05/13 11:34:10;;;;;;;6.30;5.73;;;26.40;99.90;;;;;;5112599;28;20463;-56
2023/05/13 11:36:41;;;;;;;7.23;6.73;;;26.40;99.90;;;;;;5109849;28;20796;-58
2023/05/13 11:39:12;;;;;;;6.33;5.63;;;26.80;99.90;;;;;;5111112;28;20493;-54
2023/05/13 11:41:44;;;;;;;6.40;5.83;;;26.50;99.90;;;;;;5109960;28;20791;-55
2023/05/13 11:44:13;;;;;;;7.30;6.60;;;26.80;99.90;;;;;;5111550;28;20466;-57
2023/05/13 11:46:53;;;;;;;7.63;7.03;;;27.40;99.90;;;;;;5111275;28;20528;-54
2023/05/13 11:49:39;;;;;;;7.57;6.80;;;27.90;99.90;;;;;;5110969;28;20558;-56
2023/05/13 11:52:09;;;;;;;7.60;6.90;;;27.60;99.90;;;;;;5107825;28;20463;-57
2023/05/13 11:54:47;;;;;;;7.60;6.30;;;27.50;99.90;;;;;;5114630;28;20460;-57
2023/05/13 11:57:25;;;;;;;6.90;6.30;;;27.90;99.90;;;;;;5111873;28;20502;-57
2023/05/13 11:59:58;;;;;;;9.00;6.17;;;27.20;99.90;;;;;;5114308;28;20558;-58
2023/05/13 12:02:27;;;;;;;5.50;5.10;;;27.60;99.90;;;;;;5099435;28;20499;-57
2023/05/13 12:04:55;;;;;;;5.43;4.93;;;27.60;99.90;;;;;;5093725;28;20953;-57
2023/05/13 12:07:25;;;;;;;5.90;5.40;;;28.00;99.90;;;;;;5093775;28;20464;-58
2023/05/13 12:09:55;;;;;;;5.67;5.20;;;27.70;99.90;;;;;;5109021;28;20779;-58
2023/05/13 12:12:22;;;;;;;6.57;4.83;;;27.50;99.90;;;;;;5110358;28;20490;-58
2023/05/13 12:14:50;;;;;;;5.20;4.70;;;27.20;99.90;;;;;;5087078;28;20469;-56
2023/05/13 12:17:18;;;;;;;5.70;4.90;;;27.60;99.90;;;;;;5093604;28;20473;-55
2023/05/13 12:20:06;;;;;;;5.50;4.77;;;27.60;99.90;;;;;;5085800;28;20468;-58
2023/05/13 12:22:36;;;;;;;4.40;4.10;;;28.20;99.90;;;;;;5094200;28;20792;-55
2023/05/13 12:25:37;;;;;;;6.17;4.90;;;28.80;99.90;;;;;;5093870;28;20555;-58
2023/05/13 12:28:07;;;;;;;5.07;4.57;;;28.40;99.90;;;;;;5094363;28;20559;-58
2023/05/13 12:30:35;;;;;;;4.80;4.40;;;28.50;99.90;;;;;;5097157;28;20463;-56
2023/05/13 12:33:03;;;;;;;5.57;5.17;;;27.90;99.90;;;;;;5094882;28;20465;-56
2023/05/13 12:35:31;;;;;;;6.10;4.13;;;28.30;99.90;;;;;;5097131;28;20509;-57
2023/05/13 12:38:05;;;;;;;5.17;4.77;;;28.40;99.90;;;;;;5095508;28;20465;-58
2023/05/13 12:40:32;;;;;;;5.20;4.70;;;27.70;99.90;;;;;;5096591;28;20754;-58
2023/05/13 12:43:00;;;;;;;4.07;3.77;;;28.20;99.90;;;;;;5094066;28;20576;-58
2023/05/13 12:45:30;;;;;;;7.43;4.80;;;27.70;99.90;;;;;;5096656;28;20459;-55
2023/05/13 12:47:57;;;;;;;5.70;4.40;;;26.80;99.90;;;;;;5097842;28;20456;-57
2023/05/13 12:50:25;;;;;;;5.83;5.40;;;26.00;99.90;;;;;;5098018;28;20470;-57
2023/05/13 12:52:53;;;;;;;5.23;4.50;;;25.30;99.90;;;;;;5097617;28;20460;-57